Time;durP1;ratioP1;P1;durP2;ratioP2;P2;SDS_P1;SDS_P2;PMS_P1;PMS_P2;Temp;Humidity;BMP_temperature;BMP_pressure;BME280_temperature;BME280_humidity;BME280_pressure;Samples;Min_cycle;Max_cycle;Signal;HPM_P1;HPM_P2
2022/09/14 00:00:57;;;;;;;0.50;0.50;;;;;;;12.75;100.00;99663.78;5071344;28;20547;-72
2022/09/14 00:03:23;;;;;;;1.27;1.17;;;;;;;12.71;100.00;99662.06;5070996;28;20175;-73
2022/09/14 00:05:48;;;;;;;0.03;0.03;;;;;;;12.65;100.00;99658.75;5071125;28;20717;-72
2022/09/14 00:08:14;;;;;;;2.07;1.50;;;;;;;12.68;100.00;99660.81;5069658;28;20185;-71
2022/09/14 00:10:41;;;;;;;6.23;0.60;;;;;;;12.68;100.00;99660.00;5071009;28;20242;-72
2022/09/14 00:13:08;;;;;;;0.73;0.73;;;;;;;12.72;100.00;99655.44;5070987;28;20185;-72
2022/09/14 00:15:39;;;;;;;0.20;0.13;;;;;;;12.76;100.00;99643.44;5069569;28;20181;-72
2022/09/14 00:18:09;;;;;;;0.00;0.00;;;;;;;12.77;100.00;99652.47;5069709;28;20227;-71
2022/09/14 00:20:38;;;;;;;0.00;0.00;;;;;;;12.74;100.00;99655.91;5071237;28;20181;-72
2022/09/14 00:23:04;;;;;;;0.00;0.00;;;;;;;12.73;100.00;99654.28;5069585;28;20175;-72
2022/09/14 00:25:29;;;;;;;0.00;0.00;;;;;;;12.65;100.00;99641.53;5071122;28;20223;-72
2022/09/14 00:27:56;;;;;;;0.40;0.40;;;;;;;12.58;100.00;99639.34;5069544;28;20171;-72
2022/09/14 00:30:22;;;;;;;0.00;0.00;;;;;;;12.57;100.00;99645.16;5071212;28;20198;-72
2022/09/14 00:32:48;;;;;;;0.07;0.07;;;;;;;12.47;100.00;99639.03;5069504;28;20265;-72
2022/09/14 00:35:13;;;;;;;0.10;0.10;;;;;;;12.41;100.00;99626.69;5069115;28;20262;-75
2022/09/14 00:37:39;;;;;;;0.00;0.00;;;;;;;12.35;100.00;99624.53;5070705;28;20185;-72
2022/09/14 00:40:05;;;;;;;0.10;0.10;;;;;;;12.26;100.00;99624.66;5070994;28;20173;-72
2022/09/14 00:42:30;;;;;;;0.00;0.00;;;;;;;12.30;100.00;99622.84;5071021;28;20191;-72
2022/09/14 00:45:15;;;;;;;0.00;0.00;;;;;;;12.26;100.00;99616.44;5070687;28;20641;-75
2022/09/14 00:47:42;;;;;;;0.00;0.00;;;;;;;12.22;100.00;99615.53;5069998;28;20673;-72
2022/09/14 00:50:08;;;;;;;0.37;0.37;;;;;;;12.16;100.00;99611.44;5070453;28;20194;-72
2022/09/14 00:52:37;;;;;;;0.00;0.00;;;;;;;12.15;100.00;99618.00;5070941;28;20177;-72
2022/09/14 00:55:07;;;;;;;0.50;0.20;;;;;;;12.18;100.00;99622.84;5068973;28;20175;-72
2022/09/14 00:57:36;;;;;;;0.03;0.03;;;;;;;12.19;100.00;99624.44;5069515;28;20232;-72
2022/09/14 01:00:05;;;;;;;0.00;0.00;;;;;;;12.18;100.00;99620.09;5074737;28;20171;-72
2022/09/14 01:02:32;;;;;;;0.00;0.00;;;;;;;12.15;100.00;99616.09;5074765;28;20171;-72
2022/09/14 01:04:57;;;;;;;0.00;0.00;;;;;;;12.17;100.00;99605.59;5073115;28;20171;-72
2022/09/14 01:07:35;;;;;;;0.07;0.07;;;;;;;12.27;100.00;99603.53;5073758;28;20167;-73
2022/09/14 01:10:03;;;;;;;0.00;0.00;;;;;;;12.30;100.00;99600.94;5075540;28;20607;-73
2022/09/14 01:12:32;;;;;;;0.00;0.00;;;;;;;12.28;100.00;99602.38;5076637;28;20254;-72
2022/09/14 01:15:09;;;;;;;0.00;0.00;;;;;;;12.26;100.00;99608.22;5075374;28;20205;-72
2022/09/14 01:17:46;;;;;;;0.00;0.00;;;;;;;12.32;100.00;99606.84;5074920;28;20170;-72
2022/09/14 01:20:23;;;;;;;0.00;0.00;;;;;;;12.36;100.00;99606.97;5073291;28;20633;-73
2022/09/14 01:22:59;;;;;;;0.10;0.10;;;;;;;12.38;100.00;99604.66;5074915;28;20174;-73
2022/09/14 01:26:02;;;;;;;0.00;0.00;;;;;;;12.39;100.00;99617.22;5075127;28;20170;-73
2022/09/14 01:28:45;;;;;;;0.10;0.10;;;;;;;12.33;100.00;99613.94;5073406;28;20177;-72
2022/09/14 01:31:25;;;;;;;0.00;0.00;;;;;;;12.31;100.00;99616.22;5073952;28;20194;-73
2022/09/14 01:34:08;;;;;;;0.00;0.00;;;;;;;12.26;100.00;99604.69;5074210;28;20212;-72
2022/09/14 01:36:37;;;;;;;0.20;0.20;;;;;;;12.23;100.00;99610.84;5075863;28;20163;-72
2022/09/14 01:39:08;;;;;;;0.00;0.00;;;;;;;12.23;100.00;99608.09;5075149;28;20202;-74
2022/09/14 01:41:34;;;;;;;0.00;0.00;;;;;;;12.29;100.00;99603.97;5073712;28;20174;-73
2022/09/14 01:44:08;;;;;;;0.00;0.00;;;;;;;12.32;100.00;99609.59;5074669;28;20584;-73
2022/09/14 01:46:46;;;;;;;0.00;0.00;;;;;;;12.36;100.00;99596.81;5075533;28;20202;-72
2022/09/14 01:49:23;;;;;;;0.00;0.00;;;;;;;12.37;100.00;99598.41;5075440;28;20172;-72
2022/09/14 01:52:10;;;;;;;0.00;0.00;;;;;;;12.39;100.00;99595.31;5054726;28;20218;-72
2022/09/14 01:54:47;;;;;;;0.00;0.00;;;;;;;12.36;100.00;99591.31;5054440;28;20183;-74
2022/09/14 01:57:46;;;;;;;0.00;0.00;;;;;;;12.45;100.00;99588.47;5056576;28;20221;-72
2022/09/14 02:00:17;;;;;;;0.00;0.00;;;;;;;12.62;100.00;99592.88;5056480;28;20185;-73
2022/09/14 02:02:58;;;;;;;0.00;0.00;;;;;;;12.35;100.00;99584.25;5054634;28;20551;-72
2022/09/14 02:05:23;;;;;;;0.00;0.00;;;;;;;12.17;100.00;99583.69;5053307;28;20175;-73
2022/09/14 02:07:48;;;;;;;0.00;0.00;;;;;;;12.43;100.00;99583.31;5054762;28;20190;-73
2022/09/14 02:10:15;;;;;;;0.00;0.00;;;;;;;12.60;100.00;99585.03;5053161;28;20693;-73
2022/09/14 02:12:41;;;;;;;0.00;0.00;;;;;;;12.67;100.00;99592.63;5053246;28;20177;-72
2022/09/14 02:15:09;;;;;;;0.00;0.00;;;;;;;12.74;100.00;99595.59;5053049;28;20264;-73
2022/09/14 02:17:35;;;;;;;0.00;0.00;;;;;;;12.80;100.00;99591.47;5053290;28;20175;-73
2022/09/14 02:20:06;;;;;;;0.00;0.00;;;;;;;12.79;100.00;99592.63;5053239;28;20263;-72
2022/09/14 02:22:32;;;;;;;0.00;0.00;;;;;;;12.87;100.00;99599.88;5052997;28;20182;-72
2022/09/14 02:24:57;;;;;;;0.00;0.00;;;;;;;12.92;100.00;99591.44;5053115;28;20179;-72
2022/09/14 02:27:23;;;;;;;0.00;0.00;;;;;;;12.94;100.00;99599.31;5053242;28;20237;-72
2022/09/14 02:29:50;;;;;;;0.00;0.00;;;;;;;12.87;100.00;99593.59;5052977;28;20266;-72
2022/09/14 02:32:34;;;;;;;0.00;0.00;;;;;;;12.76;100.00;99607.03;5051790;28;20186;-72
2022/09/14 02:34:59;;;;;;;0.00;0.00;;;;;;;12.71;100.00;99602.56;5052576;28;20603;-72
2022/09/14 02:37:38;;;;;;;0.00;0.00;;;;;;;12.73;100.00;99596.72;5052805;28;20199;-72
2022/09/14 02:40:07;;;;;;;0.00;0.00;;;;;;;12.78;100.00;99596.50;5052681;28;20510;-72
2022/09/14 02:42:41;;;;;;;0.00;0.00;;;;;;;12.70;100.00;99589.19;5052680;28;20171;-73
2022/09/14 02:45:24;;;;;;;0.00;0.00;;;;;;;12.61;100.00;99591.28;5052394;28;20217;-73
2022/09/14 02:48:20;;;;;;;0.00;0.00;;;;;;;12.62;100.00;99584.66;5052608;28;20175;-72
2022/09/14 02:51:21;;;;;;;0.00;0.00;;;;;;;12.64;100.00;99587.84;5050961;28;20210;-72
2022/09/14 02:53:58;;;;;;;0.00;0.00;;;;;;;12.68;100.00;99580.53;5051005;28;20641;-72
2022/09/14 02:56:24;;;;;;;0.00;0.00;;;;;;;12.64;100.00;99580.44;5052348;28;20545;-72
2022/09/14 02:58:50;;;;;;;0.00;0.00;;;;;;;12.62;100.00;99571.75;5051275;28;20304;-72
2022/09/14 03:01:18;;;;;;;0.00;0.00;;;;;;;12.62;100.00;99570.97;5051103;28;20672;-72
2022/09/14 03:03:44;;;;;;;0.00;0.00;;;;;;;12.66;100.00;99577.34;5052313;28;20534;-72
2022/09/14 03:06:12;;;;;;;0.00;0.00;;;;;;;12.64;100.00;99577.69;5052148;28;20178;-73
2022/09/14 03:08:38;;;;;;;0.00;0.00;;;;;;;12.62;100.00;99577.25;5052288;28;20254;-72
2022/09/14 03:11:04;;;;;;;1.97;1.83;;;;;;;12.57;100.00;99574.72;5052648;28;20199;-72
2022/09/14 03:13:29;;;;;;;0.00;0.00;;;;;;;12.59;100.00;99575.19;5052015;28;20266;-72
2022/09/14 03:15:54;;;;;;;0.00;0.00;;;;;;;12.59;100.00;99577.94;5052652;28;20931;-72
2022/09/14 03:18:20;;;;;;;0.00;0.00;;;;;;;12.58;100.00;99576.31;5052143;28;20537;-72
2022/09/14 03:20:45;;;;;;;0.00;0.00;;;;;;;12.58;100.00;99565.34;5051252;28;20730;-71
2022/09/14 03:23:12;;;;;;;0.00;0.00;;;;;;;12.56;100.00;99559.44;5052028;28;20186;-72
2022/09/14 03:25:42;;;;;;;0.00;0.00;;;;;;;12.33;100.00;99553.66;5051891;28;20171;-72
2022/09/14 03:28:09;;;;;;;0.00;0.00;;;;;;;12.42;100.00;99551.59;5067194;28;20179;-72
2022/09/14 03:30:34;;;;;;;0.00;0.00;;;;;;;12.51;100.00;99557.75;5051798;28;20195;-73
2022/09/14 03:33:00;;;;;;;0.00;0.00;;;;;;;12.30;100.00;99553.56;5050754;28;20182;-72
2022/09/14 03:35:30;;;;;;;0.00;0.00;;;;;;;12.44;100.00;99556.72;5051863;28;20207;-72
2022/09/14 03:37:57;;;;;;;0.00;0.00;;;;;;;12.55;100.00;99549.63;5051971;28;20175;-72
2022/09/14 03:40:23;;;;;;;0.00;0.00;;;;;;;12.63;100.00;99548.69;5050575;28;20176;-73
2022/09/14 03:42:50;;;;;;;0.00;0.00;;;;;;;12.67;100.00;99540.56;5051826;28;20229;-73
2022/09/14 03:45:16;;;;;;;0.00;0.00;;;;;;;12.66;100.00;99534.28;5051450;28;20557;-73
2022/09/14 03:47:42;;;;;;;0.00;0.00;;;;;;;12.67;100.00;99540.56;5051952;28;20261;-72
2022/09/14 03:50:10;;;;;;;0.00;0.00;;;;;;;12.48;100.00;99527.50;5051418;28;20175;-73
2022/09/14 03:52:36;;;;;;;0.00;0.00;;;;;;;12.50;100.00;99536.97;5051266;28;20233;-72
2022/09/14 03:55:03;;;;;;;0.00;0.00;;;;;;;12.54;100.00;99536.25;5051598;28;20176;-72
2022/09/14 03:57:29;;;;;;;0.00;0.00;;;;;;;12.53;100.00;99535.47;5051286;28;20179;-72
2022/09/14 03:59:54;;;;;;;0.00;0.00;;;;;;;12.49;100.00;99518.94;5067677;28;20224;-72
2022/09/14 04:02:19;;;;;;;0.00;0.00;;;;;;;12.50;100.00;99509.56;5071375;28;20190;-73
2022/09/14 04:04:47;;;;;;;0.00;0.00;;;;;;;12.42;100.00;99517.91;5069796;28;20171;-72
2022/09/14 04:07:14;;;;;;;0.00;0.00;;;;;;;12.33;100.00;99520.00;5071290;28;20488;-72
2022/09/14 04:09:39;;;;;;;0.00;0.00;;;;;;;12.29;100.00;99516.34;5071259;28;20219;-72
2022/09/14 04:12:05;;;;;;;0.00;0.00;;;;;;;12.31;100.00;99506.66;5071260;28;20633;-72
2022/09/14 04:14:30;;;;;;;0.00;0.00;;;;;;;12.27;100.00;99508.47;5070950;28;20171;-72
2022/09/14 04:16:55;;;;;;;0.00;0.00;;;;;;;12.06;100.00;99511.38;5071094;28;20182;-75
2022/09/14 04:19:21;;;;;;;0.00;0.00;;;;;;;11.95;100.00;99509.44;5070701;28;20189;-73
2022/09/14 04:21:46;;;;;;;0.00;0.00;;;;;;;11.87;100.00;99506.50;5070468;28;20181;-73
2022/09/14 04:24:12;;;;;;;0.00;0.00;;;;;;;11.84;100.00;99503.63;5070844;28;20185;-72
2022/09/14 04:26:38;;;;;;;0.00;0.00;;;;;;;11.87;100.00;99505.69;5076090;28;20171;-72
2022/09/14 04:29:04;;;;;;;0.00;0.00;;;;;;;11.91;100.00;99507.38;5072549;28;20174;-72
2022/09/14 04:31:29;;;;;;;0.00;0.00;;;;;;;11.91;100.00;99509.34;5071405;28;20719;-72
2022/09/14 04:33:55;;;;;;;0.00;0.00;;;;;;;12.03;100.00;99508.53;5071293;28;20174;-72
2022/09/14 04:36:22;;;;;;;0.00;0.00;;;;;;;12.08;100.00;99509.09;5071173;28;20649;-72
2022/09/14 04:38:52;;;;;;;0.00;0.00;;;;;;;12.09;100.00;99510.69;5071158;28;20180;-72
2022/09/14 04:41:21;;;;;;;0.00;0.00;;;;;;;11.96;100.00;99511.03;5071048;28;20178;-72
2022/09/14 04:43:51;;;;;;;0.00;0.00;;;;;;;11.85;100.00;99513.41;5070717;28;20197;-71
2022/09/14 04:46:20;;;;;;;0.00;0.00;;;;;;;11.81;100.00;99515.25;5069531;28;20216;-72
2022/09/14 04:48:47;;;;;;;0.00;0.00;;;;;;;11.79;100.00;99510.13;5071083;28;20570;-72
2022/09/14 04:51:21;;;;;;;0.00;0.00;;;;;;;11.83;100.00;99508.28;5069319;28;20217;-73
2022/09/14 04:53:51;;;;;;;0.00;0.00;;;;;;;11.85;100.00;99510.69;5069079;28;20178;-72
2022/09/14 04:56:19;;;;;;;0.00;0.00;;;;;;;11.90;100.00;99516.75;5069214;28;20213;-72
2022/09/14 04:58:46;;;;;;;0.00;0.00;;;;;;;11.93;100.00;99507.03;5070377;28;20167;-72
2022/09/14 05:01:15;;;;;;;0.00;0.00;;;;;;;11.96;100.00;99505.56;5070528;28;20266;-72
2022/09/14 05:03:41;;;;;;;0.00;0.00;;;;;;;11.98;100.00;99503.25;5068960;28;20213;-72
2022/09/14 05:06:16;;;;;;;0.00;0.00;;;;;;;11.96;100.00;99500.88;5071058;28;20178;-72
2022/09/14 05:08:42;;;;;;;0.00;0.00;;;;;;;11.88;100.00;99499.88;5069152;28;20174;-72
2022/09/14 05:11:10;;;;;;;0.10;0.10;;;;;;;11.78;100.00;99505.75;5070502;28;20263;-72
2022/09/14 05:13:36;;;;;;;0.57;0.57;;;;;;;11.78;100.00;99504.97;5070241;28;20307;-72
2022/09/14 05:16:25;;;;;;;0.00;0.00;;;;;;;11.79;100.00;99510.13;5070453;28;20224;-72
2022/09/14 05:18:54;;;;;;;0.00;0.00;;;;;;;11.81;100.00;99516.06;5070677;28;20204;-72
2022/09/14 05:21:20;;;;;;;0.00;0.00;;;;;;;11.86;100.00;99515.00;5068946;28;20220;-72
2022/09/14 05:23:46;;;;;;;0.00;0.00;;;;;;;11.88;100.00;99513.56;5070390;28;20685;-72
2022/09/14 05:26:13;;;;;;;0.00;0.00;;;;;;;11.93;100.00;99512.53;5070475;28;20282;-72
2022/09/14 05:28:38;;;;;;;0.00;0.00;;;;;;;11.93;100.00;99519.94;5070525;28;20197;-72
2022/09/14 05:31:06;;;;;;;0.00;0.00;;;;;;;11.94;100.00;99507.84;5070485;28;20667;-72
2022/09/14 05:33:32;;;;;;;0.20;0.20;;;;;;;11.93;100.00;99512.53;5070280;28;20273;-72
2022/09/14 05:36:02;;;;;;;0.20;0.20;;;;;;;11.88;100.00;99508.09;5069058;28;20175;-72
2022/09/14 05:38:29;;;;;;;0.00;0.00;;;;;;;11.89;100.00;99509.69;5070263;28;20683;-72
2022/09/14 05:40:55;;;;;;;0.00;0.00;;;;;;;11.95;100.00;99509.44;5070316;28;20233;-72
2022/09/14 05:43:21;;;;;;;0.00;0.00;;;;;;;11.98;100.00;99500.53;5070451;28;20210;-72
2022/09/14 05:45:47;;;;;;;0.00;0.00;;;;;;;12.01;100.00;99510.81;5073725;28;20167;-72
2022/09/14 05:48:13;;;;;;;0.00;0.00;;;;;;;12.05;100.00;99507.03;5073761;28;20651;-72
2022/09/14 05:50:38;;;;;;;0.00;0.00;;;;;;;12.11;100.00;99507.59;5073558;28;20206;-72
2022/09/14 05:53:04;;;;;;;0.00;0.00;;;;;;;12.11;100.00;99502.13;5073416;28;20167;-72
2022/09/14 05:55:29;;;;;;;0.00;0.00;;;;;;;12.13;100.00;99506.09;5073445;28;20392;-72
2022/09/14 05:57:54;;;;;;;0.00;0.00;;;;;;;12.17;100.00;99511.69;5072225;28;20637;-72
2022/09/14 06:00:20;;;;;;;0.30;0.30;;;;;;;12.18;100.00;99507.81;5073532;28;20210;-72
2022/09/14 06:02:52;;;;;;;0.00;0.00;;;;;;;12.23;100.00;99506.78;5073808;28;20294;-72
2022/09/14 06:05:18;;;;;;;0.00;0.00;;;;;;;12.27;100.00;99500.25;5053354;28;20207;-72
2022/09/14 06:07:43;;;;;;;0.00;0.00;;;;;;;12.36;100.00;99500.94;5053323;28;20457;-72
2022/09/14 06:10:09;;;;;;;0.00;0.00;;;;;;;12.46;100.00;99499.66;5053322;28;20258;-72
2022/09/14 06:12:35;;;;;;;0.00;0.00;;;;;;;12.55;100.00;99494.03;5052199;28;20618;-72
2022/09/14 06:15:00;;;;;;;0.00;0.00;;;;;;;12.61;100.00;99495.38;5053458;28;20179;-72
2022/09/14 06:17:28;;;;;;;0.00;0.00;;;;;;;12.68;100.00;99490.88;5053315;28;20835;-72
2022/09/14 06:19:54;;;;;;;0.00;0.00;;;;;;;12.65;100.00;99490.78;5053083;28;20194;-72
2022/09/14 06:22:20;;;;;;;0.00;0.00;;;;;;;12.49;100.00;99491.53;5053223;28;20187;-72
2022/09/14 06:24:45;;;;;;;0.00;0.00;;;;;;;12.45;100.00;99487.91;5053088;28;20540;-72
2022/09/14 06:27:11;;;;;;;0.00;0.00;;;;;;;12.35;100.00;99493.06;5053516;28;20171;-72
2022/09/14 06:29:36;;;;;;;0.00;0.00;;;;;;;12.33;100.00;99490.66;5053284;28;20175;-72
2022/09/14 06:32:02;;;;;;;0.00;0.00;;;;;;;12.45;100.00;99484.38;5053757;28;20724;-72
2022/09/14 06:34:27;;;;;;;0.00;0.00;;;;;;;12.41;100.00;99483.44;5052870;28;20643;-72
2022/09/14 06:36:52;;;;;;;0.00;0.00;;;;;;;12.35;100.00;99485.63;5053282;28;20245;-72
2022/09/14 06:39:18;;;;;;;0.00;0.00;;;;;;;12.22;100.00;99484.06;5053322;28;20218;-72
2022/09/14 06:41:43;;;;;;;0.00;0.00;;;;;;;12.33;100.00;99484.41;5054649;28;20183;-72
2022/09/14 06:44:08;;;;;;;0.00;0.00;;;;;;;12.50;100.00;99484.13;5053395;28;20735;-72
2022/09/14 06:46:34;;;;;;;0.00;0.00;;;;;;;12.62;100.00;99488.75;5053846;28;20175;-72
2022/09/14 06:49:06;;;;;;;0.00;0.00;;;;;;;12.51;100.00;99483.75;5055175;28;20191;-72
2022/09/14 06:51:38;;;;;;;0.00;0.00;;;;;;;12.47;100.00;99487.56;5055423;28;20311;-71
2022/09/14 06:54:04;;;;;;;0.00;0.00;;;;;;;12.44;100.00;99480.00;5053060;28;20175;-72
2022/09/14 06:56:32;;;;;;;0.00;0.00;;;;;;;12.58;100.00;99479.63;5051580;28;20535;-72
2022/09/14 06:58:58;;;;;;;0.00;0.00;;;;;;;12.59;100.00;99473.03;5052596;28;20247;-71
2022/09/14 07:01:25;;;;;;;0.00;0.00;;;;;;;12.58;100.00;99474.13;5052539;28;20172;-72
2022/09/14 07:03:51;;;;;;;0.00;0.00;;;;;;;12.64;100.00;99479.03;5052341;28;20544;-72
2022/09/14 07:06:20;;;;;;;0.00;0.00;;;;;;;12.59;100.00;99479.28;5052444;28;20179;-72
2022/09/14 07:08:46;;;;;;;0.00;0.00;;;;;;;12.66;100.00;99484.97;5052207;28;20172;-72
2022/09/14 07:11:14;;;;;;;0.00;0.00;;;;;;;12.82;100.00;99485.81;5052215;28;20207;-72
2022/09/14 07:13:40;;;;;;;0.00;0.00;;;;;;;12.93;100.00;99488.03;5050607;28;20615;-72
2022/09/14 07:16:06;;;;;;;0.00;0.00;;;;;;;13.05;100.00;99493.47;5052139;28;20254;-71
2022/09/14 07:18:32;;;;;;;0.00;0.00;;;;;;;12.95;100.00;99497.50;5052124;28;20194;-71
2022/09/14 07:21:09;;;;;;;0.00;0.00;;;;;;;13.12;100.00;99501.88;5054077;28;20258;-72
2022/09/14 07:23:37;;;;;;;0.00;0.00;;;;;;;13.23;100.00;99513.97;5071801;28;20265;-72
2022/09/14 07:26:06;;;;;;;0.00;0.00;;;;;;;13.35;100.00;99507.63;5070747;28;20213;-72
2022/09/14 07:28:33;;;;;;;0.00;0.00;;;;;;;13.36;100.00;99506.47;5068684;28;20203;-72
2022/09/14 07:30:58;;;;;;;0.00;0.00;;;;;;;13.28;100.00;99499.19;5071389;28;20295;-72
2022/09/14 07:33:23;;;;;;;0.00;0.00;;;;;;;13.28;100.00;99501.94;5071529;28;20202;-72
2022/09/14 07:35:49;;;;;;;0.00;0.00;;;;;;;13.36;100.00;99495.47;5071520;28;20178;-72
2022/09/14 07:38:14;;;;;;;0.00;0.00;;;;;;;13.42;100.00;99499.56;5071642;28;20175;-71
2022/09/14 07:40:40;;;;;;;0.00;0.00;;;;;;;13.47;100.00;99502.06;5071413;28;20178;-72
2022/09/14 07:43:05;;;;;;;0.00;0.00;;;;;;;13.55;100.00;99505.75;5071473;28;20486;-72
2022/09/14 07:45:31;;;;;;;0.00;0.00;;;;;;;13.61;100.00;99496.91;5071184;28;20175;-72
2022/09/14 07:47:56;;;;;;;0.00;0.00;;;;;;;13.73;100.00;99493.25;5071534;28;20174;-72
2022/09/14 07:50:21;;;;;;;0.00;0.00;;;;;;;13.72;100.00;99493.59;5071251;28;20178;-72
2022/09/14 07:52:50;;;;;;;0.00;0.00;;;;;;;13.83;100.00;99500.16;5071380;28;20175;-72
2022/09/14 07:55:15;;;;;;;0.00;0.00;;;;;;;13.85;100.00;99504.13;5070909;28;20534;-72
2022/09/14 07:57:41;;;;;;;0.00;0.00;;;;;;;13.89;100.00;99502.28;5071205;28;20703;-72
2022/09/14 08:00:07;;;;;;;0.00;0.00;;;;;;;14.06;100.00;99501.09;5071623;28;20257;-72
2022/09/14 08:02:33;;;;;;;0.00;0.00;;;;;;;14.06;100.00;99506.59;5071107;28;20672;-71
2022/09/14 08:04:58;;;;;;;0.00;0.00;;;;;;;13.91;97.92;99493.69;5071082;28;20174;-72
2022/09/14 08:07:24;;;;;;;0.00;0.00;;;;;;;14.09;97.33;99503.13;5070746;28;20178;-72
2022/09/14 08:09:49;;;;;;;0.00;0.00;;;;;;;14.30;96.74;99495.34;5070964;28;20190;-72
2022/09/14 08:12:15;;;;;;;0.00;0.00;;;;;;;14.36;96.42;99501.38;5071057;28;20234;-72
2022/09/14 08:14:40;;;;;;;0.00;0.00;;;;;;;14.24;95.72;99502.28;5070822;28;20182;-72
2022/09/14 08:17:06;;;;;;;0.00;0.00;;;;;;;14.29;96.25;99501.22;5071012;28;20561;-72
2022/09/14 08:19:31;;;;;;;0.00;0.00;;;;;;;14.33;95.52;99506.81;5071113;28;20176;-71
2022/09/14 08:21:57;;;;;;;0.00;0.00;;;;;;;14.55;95.56;99503.38;5070470;28;20187;-72
2022/09/14 08:24:22;;;;;;;0.00;0.00;;;;;;;14.57;94.19;99507.34;5069270;28;20281;-72
2022/09/14 08:26:48;;;;;;;0.00;0.00;;;;;;;14.54;92.67;99502.56;5070908;28;20174;-72
2022/09/14 08:29:15;;;;;;;0.00;0.00;;;;;;;14.48;91.79;99505.97;5070999;28;20190;-72
2022/09/14 08:31:42;;;;;;;0.00;0.00;;;;;;;14.57;92.06;99506.56;5071096;28;20210;-72
2022/09/14 08:34:08;;;;;;;0.00;0.00;;;;;;;14.72;91.75;99508.44;5070531;28;20175;-72
2022/09/14 08:36:39;;;;;;;0.20;0.10;;;;;;;14.93;90.55;99507.28;5070629;28;20217;-72
2022/09/14 08:39:08;;;;;;;0.00;0.00;;;;;;;14.98;90.01;99502.28;5065351;28;20209;-72
2022/09/14 08:41:48;;;;;;;0.00;0.00;;;;;;;15.12;89.97;99501.75;5070687;28;20178;-72
2022/09/14 08:44:19;;;;;;;0.00;0.00;;;;;;;15.02;89.13;99494.88;5070460;28;20185;-72
2022/09/14 08:46:54;;;;;;;0.00;0.00;;;;;;;14.82;89.16;99507.06;5070648;28;20175;-72
2022/09/14 08:49:40;;;;;;;0.00;0.00;;;;;;;14.73;90.04;99504.53;5070739;28;20155;-72
2022/09/14 08:52:27;;;;;;;0.00;0.00;;;;;;;14.79;89.49;99516.03;5070548;28;20291;-72
2022/09/14 08:54:55;;;;;;;0.00;0.00;;;;;;;14.87;89.40;99501.25;5070492;28;20174;-72
2022/09/14 08:57:44;;;;;;;0.00;0.00;;;;;;;15.05;91.51;99498.88;5069047;28;20251;-72
2022/09/14 09:00:13;;;;;;;0.00;0.00;;;;;;;15.29;91.04;99495.78;5070539;28;20715;-72
2022/09/14 09:03:17;;;;;;;0.00;0.00;;;;;;;15.41;90.72;99492.03;5070496;28;20167;-72
2022/09/14 09:05:50;;;;;;;0.00;0.00;;;;;;;15.58;89.57;99499.00;5070298;28;20522;-73
2022/09/14 09:08:29;;;;;;;0.00;0.00;;;;;;;15.53;88.98;99494.63;5070678;28;20178;-73
2022/09/14 09:10:58;;;;;;;0.00;0.00;;;;;;;15.77;89.79;99488.75;5070354;28;20210;-73
2022/09/14 09:13:28;;;;;;;0.00;0.00;;;;;;;15.98;88.62;99488.28;5070389;28;20527;-73
2022/09/14 09:15:58;;;;;;;0.00;0.00;;;;;;;16.01;87.04;99479.25;5070191;28;20179;-72
2022/09/14 09:18:38;;;;;;;0.00;0.00;;;;;;;16.31;87.20;99472.97;5070316;28;20197;-73
2022/09/14 09:21:15;;;;;;;0.00;0.00;;;;;;;16.47;86.72;99470.81;5073032;28;20223;-73
2022/09/14 09:23:41;;;;;;;0.00;0.00;;;;;;;16.57;86.29;99481.22;5072830;28;20230;-73
2022/09/14 09:26:28;;;;;;;0.00;0.00;;;;;;;16.67;84.35;99482.53;5073986;28;20182;-73
2022/09/14 09:28:57;;;;;;;0.00;0.00;;;;;;;16.70;84.79;99465.25;5072915;28;20174;-73
2022/09/14 09:31:33;;;;;;;0.00;0.00;;;;;;;16.81;84.90;99463.41;5073955;28;20669;-73
2022/09/14 09:33:59;;;;;;;0.07;0.03;;;;;;;16.48;83.82;99455.88;5072750;28;20534;-73
2022/09/14 09:36:29;;;;;;;0.10;0.10;;;;;;;16.53;84.10;99458.31;5073987;28;20189;-73
2022/09/14 09:38:54;;;;;;;0.00;0.00;;;;;;;16.61;84.24;99464.69;5074015;28;20278;-73
2022/09/14 09:41:26;;;;;;;0.00;0.00;;;;;;;16.65;84.43;99469.09;5072557;28;20708;-73
2022/09/14 09:44:00;;;;;;;0.00;0.00;;;;;;;16.42;84.47;99468.41;5072193;28;20637;-73
2022/09/14 09:46:30;;;;;;;0.00;0.00;;;;;;;16.64;84.19;99467.53;5072592;28;20173;-73
2022/09/14 09:48:56;;;;;;;0.00;0.00;;;;;;;16.66;83.08;99465.19;5073709;28;20278;-73
2022/09/14 09:51:29;;;;;;;0.00;0.00;;;;;;;16.83;82.40;99465.78;5072360;28;20286;-73
2022/09/14 09:54:23;;;;;;;0.00;0.00;;;;;;;16.74;81.36;99457.00;5073378;28;20181;-74
2022/09/14 09:56:48;;;;;;;0.00;0.00;;;;;;;16.77;82.54;99456.25;5073657;28;20187;-73
2022/09/14 09:59:26;;;;;;;0.00;0.00;;;;;;;16.79;82.48;99446.44;5072423;28;20186;-74
2022/09/14 10:01:54;;;;;;;0.00;0.00;;;;;;;16.60;81.27;99430.81;5073120;28;20186;-73
2022/09/14 10:04:28;;;;;;;0.00;0.00;;;;;;;16.59;80.08;99436.72;5071863;28;20223;-75
2022/09/14 10:06:56;;;;;;;0.00;0.00;;;;;;;16.47;79.07;99423.97;5073576;28;20173;-75
2022/09/14 10:09:27;;;;;;;0.00;0.00;;;;;;;16.56;80.32;99426.44;5073307;28;20182;-73
2022/09/14 10:11:58;;;;;;;0.00;0.00;;;;;;;16.55;78.50;99444.94;5073343;28;20414;-73
2022/09/14 10:14:30;;;;;;;0.00;0.00;;;;;;;16.65;77.20;99451.75;5073018;28;20189;-73
2022/09/14 10:17:20;;;;;;;0.00;0.00;;;;;;;16.69;76.10;99462.88;5073157;28;20174;-75
2022/09/14 10:19:54;;;;;;;0.00;0.00;;;;;;;16.75;74.88;99467.66;5071434;28;20270;-76
2022/09/14 10:22:31;;;;;;;0.00;0.00;;;;;;;16.81;73.04;99462.63;5073179;28;20413;-74
2022/09/14 10:25:02;;;;;;;0.00;0.00;;;;;;;17.01;74.80;99468.72;5072794;28;20261;-73
2022/09/14 10:27:51;;;;;;;0.00;0.00;;;;;;;17.16;74.75;99462.19;5073003;28;20214;-72
2022/09/14 10:30:19;;;;;;;0.00;0.00;;;;;;;17.09;74.20;99445.56;5071432;28;20182;-73
2022/09/14 10:33:08;;;;;;;0.00;0.00;;;;;;;17.07;73.52;99445.13;5072878;28;20174;-73
2022/09/14 10:35:55;;;;;;;0.00;0.00;;;;;;;17.23;73.53;99435.44;5072636;28;20194;-73
2022/09/14 10:38:44;;;;;;;0.00;0.00;;;;;;;17.48;72.74;99432.88;5072771;28;20178;-73
2022/09/14 10:41:25;;;;;;;0.00;0.00;;;;;;;17.14;72.43;99423.13;5072837;28;20174;-73
2022/09/14 10:44:25;;;;;;;0.00;0.00;;;;;;;17.08;72.86;99419.94;5071290;28;20267;-72
2022/09/14 10:47:09;;;;;;;0.00;0.00;;;;;;;17.20;72.65;99416.06;5072584;28;20174;-73
2022/09/14 10:49:52;;;;;;;0.00;0.00;;;;;;;17.18;71.01;99416.44;5072641;28;20262;-73
2022/09/14 10:52:30;;;;;;;0.00;0.00;;;;;;;17.19;72.11;99418.03;5071415;28;20202;-73
2022/09/14 10:55:13;;;;;;;0.00;0.00;;;;;;;17.14;70.72;99412.88;5072349;28;20269;-74
2022/09/14 10:58:11;;;;;;;0.00;0.00;;;;;;;17.39;71.76;99432.44;5071444;28;20241;-73
2022/09/14 11:00:58;;;;;;;0.00;0.00;;;;;;;17.62;72.19;99434.97;5072593;28;20179;-73
2022/09/14 11:04:05;;;;;;;0.00;0.00;;;;;;;17.68;71.26;99429.88;5072769;28;20178;-73
2022/09/14 11:06:33;;;;;;;0.00;0.00;;;;;;;17.70;71.01;99424.78;5029755;28;20678;-74
2022/09/14 11:09:14;;;;;;;0.00;0.00;;;;;;;17.50;70.91;99411.22;5060865;28;20344;-73
2022/09/14 11:11:49;;;;;;;0.00;0.00;;;;;;;17.44;71.53;99411.94;5072167;28;20213;-74
2022/09/14 11:14:40;;;;;;;0.00;0.00;;;;;;;17.46;71.85;99413.13;5070668;28;20235;-73
2022/09/14 11:17:18;;;;;;;0.00;0.00;;;;;;;17.13;71.01;99403.00;5072520;28;20217;-73
2022/09/14 11:20:07;;;;;;;0.00;0.00;;;;;;;17.45;72.10;99410.75;5071251;28;20214;-74
2022/09/14 11:22:54;;;;;;;0.00;0.00;;;;;;;17.35;70.44;99398.44;5073990;28;20182;-74
2022/09/14 11:25:51;;;;;;;0.00;0.00;;;;;;;17.54;71.40;99402.94;5073158;28;20238;-74
2022/09/14 11:28:54;;;;;;;0.00;0.00;;;;;;;17.75;70.57;99410.59;5073504;28;20592;-73
2022/09/14 11:31:39;;;;;;;0.00;0.00;;;;;;;17.75;70.40;99403.09;5053935;28;20218;-73
2022/09/14 11:34:27;;;;;;;0.00;0.00;;;;;;;17.69;69.50;99401.09;5075700;28;20170;-73
2022/09/14 11:37:17;;;;;;;0.00;0.00;;;;;;;17.73;69.45;99413.75;5075374;28;20220;-73
2022/09/14 11:39:54;;;;;;;0.00;0.00;;;;;;;17.47;70.60;99405.66;5071878;28;20641;-73
2022/09/14 11:42:32;;;;;;;0.00;0.00;;;;;;;17.74;70.83;99406.25;5070047;28;20214;-73
2022/09/14 11:45:18;;;;;;;0.00;0.00;;;;;;;17.80;70.64;99415.78;5070298;28;20572;-73